createdAt,value
2023-02-11T00:01:30.380Z,100633.50
2023-02-11T00:04:00.540Z,100620.16
2023-02-11T00:06:32.626Z,100618.28
2023-02-11T00:09:01.626Z,100611.28
2023-02-11T00:11:31.035Z,100602.44
2023-02-11T00:14:00.959Z,100597.16
2023-02-11T00:16:31.460Z,100599.66
2023-02-11T00:19:00.928Z,100588.94
2023-02-11T00:21:29.837Z,100584.59
2023-02-11T00:24:02.100Z,100574.03
2023-02-11T00:26:32.662Z,100566.78
2023-02-11T00:29:02.183Z,100565.88
2023-02-11T00:31:35.513Z,100559.66
2023-02-11T00:34:06.645Z,100550.78
2023-02-11T00:36:35.200Z,100529.53
2023-02-11T00:39:05.425Z,100525.09
2023-02-11T00:41:34.217Z,100512.59
2023-02-11T00:44:02.774Z,100510.66
2023-02-11T00:46:31.507Z,100498.16
2023-02-11T00:49:00.027Z,100491.06
2023-02-11T00:51:29.731Z,100483.94
2023-02-11T00:53:58.204Z,100475.78
2023-02-11T00:56:28.523Z,100472.94
2023-02-11T00:58:57.504Z,100465.00
2023-02-11T01:01:26.241Z,100450.81
2023-02-11T01:03:54.850Z,100447.28
2023-02-11T01:06:25.006Z,100439.34
2023-02-11T01:08:53.609Z,100430.63
2023-02-11T01:11:22.874Z,100428.59
2023-02-11T01:13:52.850Z,100412.75
2023-02-11T01:16:22.363Z,100410.25
2023-02-11T01:18:51.038Z,100395.19
2023-02-11T01:21:19.670Z,100388.16
2023-02-11T01:23:48.291Z,100377.59
2023-02-11T01:26:16.737Z,100363.47
2023-02-11T01:28:45.366Z,100359.94
2023-02-11T01:31:16.207Z,100337.00
2023-02-11T01:33:44.735Z,100327.91
2023-02-11T01:36:14.156Z,100306.81
2023-02-11T01:38:44.625Z,100306.75
2023-02-11T01:41:16.004Z,100303.09
2023-02-11T01:43:47.000Z,100287.16
2023-02-11T01:46:37.363Z,100280.06
2023-02-11T01:49:11.057Z,100264.81
2023-02-11T01:51:42.927Z,100254.41
2023-02-11T01:54:32.175Z,100248.78
2023-02-11T01:57:21.318Z,100221.56
2023-02-11T01:59:58.124Z,100214.84
2023-02-11T02:02:34.133Z,100198.38
2023-02-11T02:05:25.036Z,100176.72
2023-02-11T02:07:59.757Z,100160.31
2023-02-11T02:10:30.184Z,100148.91
2023-02-11T02:12:58.902Z,100133.72
2023-02-11T02:15:30.933Z,100117.94
2023-02-11T02:18:09.739Z,100112.66
2023-02-11T02:21:22.632Z,100098.47
2023-02-11T02:24:21.734Z,100099.41
2023-02-11T02:27:18.308Z,100075.69
2023-02-11T02:30:24.758Z,100053.00
2023-02-11T02:33:23.426Z,100044.47
2023-02-11T02:35:59.635Z,100037.31
2023-02-11T02:38:33.242Z,100031.66
2023-02-11T02:41:07.705Z,100029.88
2023-02-11T02:43:38.669Z,100006.06
2023-02-11T02:46:15.610Z,99997.00
2023-02-11T02:48:46.550Z,99981.91
2023-02-11T02:51:47.516Z,99962.16
2023-02-11T02:54:46.110Z,99947.81
2023-02-11T02:57:29.265Z,99948.38
2023-02-11T03:00:11.466Z,99942.25
2023-02-11T03:02:46.567Z,99925.41
2023-02-11T03:05:23.206Z,99913.78
2023-02-11T03:08:00.097Z,99911.91
2023-02-11T03:10:31.725Z,99903.03
2023-02-11T03:13:01.117Z,99901.13
2023-02-11T03:15:33.816Z,99882.34
2023-02-11T03:18:04.954Z,99874.38
2023-02-11T03:20:37.821Z,99882.91
2023-02-11T03:23:12.751Z,99873.91
2023-02-11T03:25:47.195Z,99871.09
2023-02-11T03:28:23.827Z,99859.47
2023-02-11T03:30:58.867Z,99848.88
2023-02-11T03:33:32.385Z,99832.69
2023-02-11T03:36:08.087Z,99812.47
2023-02-11T03:38:43.393Z,99804.25
2023-02-11T03:41:13.995Z,99798.94
2023-02-11T03:43:46.003Z,99793.38
2023-02-11T03:46:19.190Z,99789.75
2023-02-11T03:48:53.661Z,99780.47
2023-02-11T03:51:26.851Z,99787.28
2023-02-11T03:53:59.307Z,99782.63
2023-02-11T03:56:31.826Z,99765.47
2023-02-11T03:59:00.441Z,99749.78
2023-02-11T04:01:28.928Z,99738.06
2023-02-11T04:03:57.525Z,99729.91
2023-02-11T04:06:27.528Z,99724.81
2023-02-11T04:08:56.476Z,99695.47
2023-02-11T04:11:24.950Z,99692.53
2023-02-11T04:13:53.411Z,99692.59
2023-02-11T04:16:21.945Z,99681.84
2023-02-11T04:18:50.798Z,99672.91
2023-02-11T04:21:19.333Z,99659.59
2023-02-11T04:23:49.292Z,99653.41
2023-02-11T04:26:17.910Z,99648.13
2023-02-11T04:28:46.508Z,99639.44
2023-02-11T04:31:15.161Z,99638.41
2023-02-11T04:33:43.673Z,99643.47
2023-02-11T04:36:12.215Z,99636.47
2023-02-11T04:38:40.716Z,99630.22
2023-02-11T04:41:10.658Z,99613.50
2023-02-11T04:43:39.098Z,99602.69
2023-02-11T04:46:07.742Z,99597.28
2023-02-11T04:48:36.260Z,99587.75
2023-02-11T04:51:05.365Z,99570.88
2023-02-11T04:53:33.799Z,99573.22
2023-02-11T04:56:02.468Z,99560.06
2023-02-11T04:58:32.640Z,99557.41
2023-02-11T05:01:08.232Z,99543.44
2023-02-11T05:03:37.231Z,99529.03
2023-02-11T05:06:06.597Z,99529.03
2023-02-11T05:08:35.234Z,99514.94
2023-02-11T05:11:03.714Z,99517.69
2023-02-11T05:13:33.720Z,99510.38
2023-02-11T05:16:02.262Z,99500.41
2023-02-11T05:18:30.791Z,99499.56
2023-02-11T05:20:59.222Z,99496.78
2023-02-11T05:23:27.700Z,99488.50
2023-02-11T05:25:56.141Z,99478.97
2023-02-11T05:28:24.835Z,99483.53
2023-02-11T05:30:54.884Z,99470.28
2023-02-11T05:33:23.422Z,99477.31
2023-02-11T05:35:52.358Z,99462.47
2023-02-11T05:38:20.917Z,99444.03
2023-02-11T05:40:49.330Z,99450.91
2023-02-11T05:43:17.839Z,99433.41
2023-02-11T05:45:46.315Z,99436.91
2023-02-11T05:48:16.264Z,99437.88
2023-02-11T05:50:44.943Z,99424.72
2023-02-11T05:53:13.809Z,99428.88
2023-02-11T05:55:43.459Z,99427.91
2023-02-11T05:58:12.129Z,99421.75
2023-02-11T06:00:40.924Z,99420.91
2023-02-11T06:03:09.374Z,99419.94
2023-02-11T06:05:39.406Z,99424.41
2023-02-11T06:08:07.904Z,99417.19
2023-02-11T06:10:36.317Z,99405.00
2023-02-11T06:13:04.886Z,99412.00
2023-02-11T06:15:33.353Z,99405.00
2023-02-11T06:18:01.793Z,99402.47
2023-02-11T06:20:30.267Z,99396.22
2023-02-11T06:23:00.048Z,99380.44
2023-02-11T06:25:28.530Z,99392.75
2023-02-11T06:27:57.057Z,99391.03
2023-02-11T06:30:25.487Z,99379.59
2023-02-11T06:32:55.124Z,99383.81
2023-02-11T06:35:23.667Z,99383.72
2023-02-11T06:37:54.122Z,99381.28
2023-02-11T06:40:24.148Z,99370.66
2023-02-11T06:42:52.588Z,99376.84
2023-02-11T06:45:21.088Z,99380.34
2023-02-11T06:47:49.524Z,99375.97
2023-02-11T06:50:18.100Z,99367.91
2023-02-11T06:52:46.509Z,99371.53
2023-02-11T06:55:15.131Z,99361.78
2023-02-11T06:57:45.251Z,99359.00
2023-02-11T07:00:15.330Z,99360.72
2023-02-11T07:02:44.055Z,99365.03
2023-02-11T07:05:13.003Z,99356.25
2023-02-11T07:07:41.542Z,99354.44
2023-02-11T07:10:10.755Z,99346.50
2023-02-11T07:12:39.319Z,99353.69
2023-02-11T07:15:09.956Z,99354.56
2023-02-11T07:17:38.663Z,99346.50
2023-02-11T07:20:07.838Z,99360.72
2023-02-11T07:22:36.322Z,99362.63
2023-02-11T07:25:05.494Z,99361.66
2023-02-11T07:27:33.917Z,99364.31
2023-02-11T07:30:03.410Z,99363.47
2023-02-11T07:32:34.934Z,99366.84
2023-02-11T07:35:04.148Z,99367.09
2023-02-11T07:37:35.189Z,99360.94
2023-02-11T07:40:04.137Z,99360.94
2023-02-11T07:42:32.834Z,99365.16
2023-02-11T07:45:01.375Z,99366.84
2023-02-11T07:47:29.908Z,99365.16
2023-02-11T07:49:59.854Z,99366.00
2023-02-11T07:52:31.534Z,99363.38
2023-02-11T07:55:00.143Z,99359.00
2023-02-11T07:57:28.710Z,99355.31
2023-02-11T07:59:57.137Z,99355.31
2023-02-11T08:02:25.775Z,99357.00
2023-02-11T08:04:54.563Z,99353.50
2023-02-11T08:07:25.029Z,99346.50
2023-02-11T08:09:54.615Z,99346.50
2023-02-11T08:12:23.227Z,99343.66
2023-02-11T08:14:51.760Z,99346.28
2023-02-11T08:17:20.305Z,99355.19
2023-02-11T08:19:48.754Z,99347.38
2023-02-11T08:22:17.247Z,99347.22
2023-02-11T08:24:47.488Z,99347.22
2023-02-11T08:27:15.966Z,99355.94
2023-02-11T08:29:45.268Z,99357.59
2023-02-11T08:32:13.953Z,99355.69
2023-02-11T08:34:42.624Z,99361.13
2023-02-11T08:37:11.040Z,99366.53
2023-02-11T08:39:39.801Z,99375.22
2023-02-11T08:42:09.697Z,99378.69
2023-02-11T08:44:38.179Z,99385.69
2023-02-11T08:47:06.860Z,99390.78
2023-02-11T08:49:35.508Z,99388.22
2023-02-11T08:52:04.414Z,99391.84
2023-02-11T08:54:33.462Z,99404.97
2023-02-11T08:57:02.679Z,99395.34
2023-02-11T08:59:32.880Z,99397.03
2023-02-11T09:02:01.472Z,99396.91
2023-02-11T09:04:30.044Z,99401.25
2023-02-11T09:06:58.806Z,99400.31
2023-02-11T09:09:27.412Z,99403.69
2023-02-11T09:11:57.591Z,99394.03
2023-02-11T09:14:26.453Z,99402.50
2023-02-11T09:16:56.429Z,99393.38
2023-02-11T09:19:25.209Z,99396.78
2023-02-11T09:21:53.704Z,99406.41
2023-02-11T09:24:22.256Z,99402.78
2023-02-11T09:26:50.976Z,99404.38
2023-02-11T09:29:19.551Z,99410.53
2023-02-11T09:31:48.132Z,99409.47
2023-02-11T09:34:18.370Z,99411.03
2023-02-11T09:36:46.881Z,99417.91
2023-02-11T09:39:18.500Z,99421.06
2023-02-11T09:42:08.644Z,99418.81
2023-02-11T09:44:38.879Z,99420.28
2023-02-11T09:47:14.623Z,99421.50
2023-02-11T09:49:51.135Z,99433.59
2023-02-11T09:52:31.474Z,99432.28
2023-02-11T09:55:01.812Z,99424.47
2023-02-11T09:57:35.177Z,99426.69
2023-02-11T10:00:05.073Z,99431.03
2023-02-11T10:02:55.909Z,99438.97
2023-02-11T10:05:39.961Z,99431.88
2023-02-11T10:08:15.908Z,99434.06
2023-02-11T10:10:53.605Z,99435.66
2023-02-11T10:13:37.601Z,99439.97
2023-02-11T10:16:15.368Z,99453.91
2023-02-11T10:19:09.936Z,99447.06
2023-02-11T10:21:46.921Z,99449.22
2023-02-11T10:24:18.109Z,99460.09
2023-02-11T10:26:47.058Z,99474.59
2023-02-11T10:29:27.695Z,99466.13
2023-02-11T10:31:58.272Z,99474.25
2023-02-11T10:34:26.931Z,99478.47
2023-02-11T10:36:56.927Z,99486.34
2023-02-11T10:39:28.439Z,99492.50
2023-02-11T10:42:00.832Z,99501.19
2023-02-11T10:44:33.346Z,99506.50
2023-02-11T10:47:06.640Z,99509.63
2023-02-11T10:49:38.630Z,99521.22
2023-02-11T10:52:26.436Z,99528.44
2023-02-11T10:55:07.034Z,99532.53
2023-02-11T10:57:38.718Z,99550.88
2023-02-11T11:00:23.089Z,99560.97
2023-02-11T11:02:57.843Z,99570.38
2023-02-11T11:05:31.854Z,99585.31
2023-02-11T11:08:09.622Z,99589.44
2023-02-11T11:10:44.794Z,99597.41
2023-02-11T11:13:39.241Z,99603.56
2023-02-11T11:16:24.356Z,99618.19
2023-02-11T11:19:00.978Z,99616.50
2023-02-11T11:21:41.176Z,99614.19
2023-02-11T11:24:29.757Z,99624.19
2023-02-11T11:27:01.923Z,99647.03
2023-02-11T11:29:36.578Z,99659.47
2023-02-11T11:32:12.731Z,99664.53
2023-02-11T11:34:44.293Z,99671.75
2023-02-11T11:37:15.572Z,99670.19
2023-02-11T11:39:50.393Z,99677.41
2023-02-11T11:42:28.506Z,99685.81
2023-02-11T11:45:00.856Z,99685.19
2023-02-11T11:47:41.584Z,99697.94
2023-02-11T11:50:32.513Z,99708.56
2023-02-11T11:53:07.248Z,99715.34
2023-02-11T11:55:43.166Z,99718.75
2023-02-11T11:58:19.026Z,99734.69
2023-02-11T12:01:00.442Z,99737.66
2023-02-11T12:04:16.003Z,99740.41
2023-02-11T12:06:54.274Z,99742.84
2023-02-11T12:09:32.945Z,99757.59
2023-02-11T12:12:32.639Z,99770.75
2023-02-11T12:15:26.603Z,99784.97
2023-02-11T12:18:18.862Z,99803.69
2023-02-11T12:21:11.564Z,99809.19
2023-02-11T12:23:55.881Z,99827.91
2023-02-11T12:26:32.665Z,99833.41
2023-02-11T12:29:17.546Z,99845.41
2023-02-11T12:32:14.044Z,99866.53
2023-02-11T12:35:11.364Z,99866.59
2023-02-11T12:37:58.221Z,99881.59
2023-02-11T12:40:39.943Z,99892.81
2023-02-11T12:43:17.625Z,99907.44
2023-02-11T12:46:10.905Z,99922.19
2023-02-11T12:49:06.501Z,99936.81
2023-02-11T12:51:50.657Z,99957.44
2023-02-11T12:54:27.604Z,99968.63
2023-02-11T12:57:03.868Z,99987.38
2023-02-11T12:59:56.749Z,99995.72
2023-02-11T13:02:36.931Z,100001.78
2023-02-11T13:05:23.464Z,100022.69
2023-02-11T13:07:54.960Z,100036.22
2023-02-11T13:10:32.967Z,100060.47
2023-02-11T13:13:18.988Z,100066.13
2023-02-11T13:15:53.357Z,100075.41
2023-02-11T13:18:37.207Z,100074.44
2023-02-11T13:21:23.831Z,100100.41
2023-02-11T13:24:01.029Z,100117.03
2023-02-11T13:26:36.562Z,100133.00
2023-02-11T13:29:17.718Z,100141.00
2023-02-11T13:31:55.045Z,100161.94
2023-02-11T13:34:49.681Z,100171.19
2023-02-11T13:37:24.021Z,100175.44
2023-02-11T13:40:00.991Z,100203.66
2023-02-11T13:42:31.259Z,100209.84
2023-02-11T13:45:00.247Z,100220.44
2023-02-11T13:47:33.009Z,100232.06
2023-02-11T13:50:07.689Z,100238.38
2023-02-11T13:52:39.420Z,100254.09
2023-02-11T13:55:21.697Z,100251.63
2023-02-11T13:58:36.713Z,100272.50
2023-02-11T14:01:05.800Z,100290.38
2023-02-11T14:03:56.738Z,100291.66
2023-02-11T14:07:02.004Z,100306.44
2023-02-11T14:09:41.599Z,100319.94
2023-02-11T14:12:31.975Z,100336.66
2023-02-11T14:15:22.995Z,100356.75
2023-02-11T14:17:52.636Z,100359.72
2023-02-11T14:20:44.956Z,100381.00
2023-02-11T14:23:31.275Z,100384.31
2023-02-11T14:26:20.080Z,100405.84
2023-02-11T14:28:52.550Z,100412.38
2023-02-11T14:31:25.675Z,100430.59
2023-02-11T14:34:18.938Z,100447.56
2023-02-11T14:37:11.680Z,100453.66
2023-02-11T14:40:11.809Z,100471.56
2023-02-11T14:42:40.600Z,100479.06
2023-02-11T14:45:12.581Z,100496.84
2023-02-11T14:47:46.682Z,100505.06
2023-02-11T14:50:20.097Z,100508.63
2023-02-11T14:52:49.052Z,100517.91
2023-02-11T14:55:30.482Z,100528.53
2023-02-11T14:58:17.511Z,100546.75
2023-02-11T15:00:51.523Z,100554.91
2023-02-11T15:03:35.654Z,100568.56
2023-02-11T15:06:08.569Z,100581.06
2023-02-11T15:08:39.656Z,100584.88
2023-02-11T15:11:12.061Z,100594.44
2023-02-11T15:13:47.637Z,100609.81
2023-02-11T15:16:19.573Z,100619.19
2023-02-11T15:18:52.052Z,100625.75
2023-02-11T15:21:25.807Z,100642.56
2023-02-11T15:23:58.952Z,100647.34
2023-02-11T15:26:29.793Z,100655.41
2023-02-11T15:28:58.330Z,100664.22
2023-02-11T15:31:28.954Z,100672.84
2023-02-11T15:33:57.709Z,100682.56
2023-02-11T15:36:34.510Z,100695.25
2023-02-11T15:39:35.654Z,100706.63
2023-02-11T15:42:22.061Z,100715.56
2023-02-11T15:44:56.546Z,100721.19
2023-02-11T15:47:31.209Z,100729.72
2023-02-11T15:50:00.038Z,100733.75
2023-02-11T15:52:29.851Z,100735.72
2023-02-11T15:55:01.917Z,100742.06
2023-02-11T15:57:32.010Z,100764.19
2023-02-11T16:00:04.589Z,100775.38
2023-02-11T16:02:45.285Z,100777.50
2023-02-11T16:05:28.072Z,100784.47
2023-02-11T16:07:57.129Z,100794.91
2023-02-11T16:10:28.973Z,100813.19
2023-02-11T16:13:05.111Z,100811.56
2023-02-11T16:15:52.654Z,100823.09
2023-02-11T16:18:37.852Z,100829.28
2023-02-11T16:21:14.608Z,100834.75
2023-02-11T16:23:43.628Z,100855.78
2023-02-11T16:26:22.130Z,100857.75
2023-02-11T16:28:52.809Z,100862.28
2023-02-11T16:31:21.627Z,100864.03
2023-02-11T16:33:50.231Z,100871.75
2023-02-11T16:36:18.657Z,100875.19
2023-02-11T16:38:47.130Z,100884.91
2023-02-11T16:41:15.550Z,100884.78
2023-02-11T16:43:44.050Z,100887.97
2023-02-11T16:46:16.468Z,100900.16
2023-02-11T16:48:45.252Z,100912.44
2023-02-11T16:51:13.855Z,100921.56
2023-02-11T16:53:42.430Z,100931.34
2023-02-11T16:56:16.962Z,100934.03
2023-02-11T16:58:46.101Z,100942.06
2023-02-11T17:01:16.112Z,100955.16
2023-02-11T17:03:45.742Z,100960.91
2023-02-11T17:06:15.025Z,100975.56
2023-02-11T17:08:43.630Z,100982.47
2023-02-11T17:11:16.944Z,100992.53
2023-02-11T17:13:45.654Z,101003.72
2023-02-11T17:16:20.845Z,101011.94
2023-02-11T17:18:49.892Z,101006.13
2023-02-11T17:21:19.084Z,101022.94
2023-02-11T17:23:47.654Z,101035.41
2023-02-11T17:26:16.305Z,101039.06
2023-02-11T17:28:44.768Z,101044.47
2023-02-11T17:31:13.474Z,101055.19
2023-02-11T17:33:43.613Z,101049.72
2023-02-11T17:36:12.644Z,101057.31
2023-02-11T17:38:41.142Z,101062.59
2023-02-11T17:41:09.708Z,101079.19
2023-02-11T17:43:38.225Z,101094.31
2023-02-11T17:46:08.843Z,101099.56
2023-02-11T17:48:38.882Z,101105.72
2023-02-11T17:51:23.603Z,101113.72
2023-02-11T17:53:52.203Z,101119.00
2023-02-11T17:56:20.741Z,101116.19
2023-02-11T17:58:49.404Z,101128.91
2023-02-11T18:01:18.344Z,101121.78
2023-02-11T18:03:47.066Z,101130.53
2023-02-11T18:06:17.055Z,101138.53
2023-02-11T18:08:45.569Z,101138.63
2023-02-11T18:11:15.249Z,101157.72
2023-02-11T18:13:44.088Z,101168.59
2023-02-11T18:16:16.070Z,101171.25
2023-02-11T18:18:45.074Z,101185.34
2023-02-11T18:21:17.406Z,101189.72
2023-02-11T18:23:46.587Z,101202.69
2023-02-11T18:26:17.922Z,101201.88
2023-02-11T18:28:46.773Z,101210.03
2023-02-11T18:31:16.141Z,101220.75
2023-02-11T18:33:44.767Z,101224.31
2023-02-11T18:36:15.448Z,101234.75
2023-02-11T18:38:45.498Z,101234.84
2023-02-11T18:41:14.490Z,101232.09
2023-02-11T18:43:43.573Z,101241.00
2023-02-11T18:46:14.012Z,101243.78
2023-02-11T18:48:44.996Z,101244.81
2023-02-11T18:51:16.028Z,101250.16
2023-02-11T18:53:46.118Z,101270.38
2023-02-11T18:56:20.437Z,101268.81
2023-02-11T18:58:49.239Z,101267.84
2023-02-11T19:01:19.709Z,101270.38
2023-02-11T19:03:48.552Z,101282.91
2023-02-11T19:06:18.458Z,101299.75
2023-02-11T19:08:48.671Z,101304.03
2023-02-11T19:11:18.969Z,101307.47
2023-02-11T19:13:48.348Z,101303.13
2023-02-11T19:16:20.109Z,101310.94
2023-02-11T19:18:48.574Z,101307.47
2023-02-11T19:21:20.788Z,101320.88
2023-02-11T19:23:50.709Z,101326.31
2023-02-11T19:26:19.551Z,101336.59
2023-02-11T19:28:48.209Z,101340.97
2023-02-11T19:31:16.774Z,101349.91
2023-02-11T19:33:45.377Z,101347.47
2023-02-11T19:36:16.587Z,101358.06
2023-02-11T19:38:45.909Z,101352.44
2023-02-11T19:41:19.312Z,101361.22
2023-02-11T19:43:52.913Z,101367.44
2023-02-11T19:46:22.062Z,101375.56
2023-02-11T19:48:50.785Z,101382.63
2023-02-11T19:51:19.929Z,101386.91
2023-02-11T19:53:48.961Z,101386.97
2023-02-11T19:56:20.842Z,101391.38
2023-02-11T19:58:49.631Z,101394.75
2023-02-11T20:01:20.153Z,101389.47
2023-02-11T20:03:51.188Z,101394.00
2023-02-11T20:06:23.513Z,101402.78
2023-02-11T20:08:58.460Z,101408.25
2023-02-11T20:11:30.586Z,101409.13
2023-02-11T20:13:59.569Z,101406.78
2023-02-11T20:16:46.264Z,101412.13
2023-02-11T20:19:18.364Z,101410.41
2023-02-11T20:21:48.164Z,101408.75
2023-02-11T20:24:17.834Z,101413.97
2023-02-11T20:26:48.821Z,101423.06
2023-02-11T20:29:17.733Z,101424.56
2023-02-11T20:31:46.546Z,101432.75
2023-02-11T20:34:17.807Z,101437.19
2023-02-11T20:36:52.254Z,101445.91
2023-02-11T20:39:22.678Z,101454.06
2023-02-11T20:41:54.070Z,101475.53
2023-02-11T20:44:23.184Z,101479.78
2023-02-11T20:46:54.553Z,101489.09
2023-02-11T20:49:24.721Z,101493.44
2023-02-11T20:51:54.114Z,101500.41
2023-02-11T20:54:23.733Z,101512.13
2023-02-11T20:56:55.569Z,101518.41
2023-02-11T20:59:24.149Z,101521.16
2023-02-11T21:01:55.579Z,101535.28
2023-02-11T21:04:26.869Z,101548.09
2023-02-11T21:06:56.263Z,101547.69
2023-02-11T21:09:27.465Z,101558.88
2023-02-11T21:11:57.654Z,101555.28
2023-02-11T21:14:27.455Z,101563.28
2023-02-11T21:16:56.200Z,101576.41
2023-02-11T21:19:24.677Z,101580.66
2023-02-11T21:21:53.186Z,101583.44
2023-02-11T21:24:21.689Z,101591.59
2023-02-11T21:26:50.169Z,101591.59
2023-02-11T21:29:20.060Z,101585.41
2023-02-11T21:31:48.641Z,101585.38
2023-02-11T21:34:17.360Z,101595.75
2023-02-11T21:36:46.046Z,101589.94
2023-02-11T21:39:15.037Z,101604.22
2023-02-11T21:41:43.529Z,101604.31
2023-02-11T21:44:12.011Z,101596.97
2023-02-11T21:46:42.896Z,101607.38
2023-02-11T21:49:13.945Z,101607.78
2023-02-11T21:51:42.793Z,101596.06
2023-02-11T21:54:13.188Z,101596.84
2023-02-11T21:56:41.883Z,101611.66
2023-02-11T21:59:15.162Z,101618.06
2023-02-11T22:01:47.290Z,101606.56
2023-02-11T22:04:17.318Z,101619.63
2023-02-11T22:06:45.990Z,101631.72
2023-02-11T22:09:15.189Z,101634.34
2023-02-11T22:11:44.082Z,101632.72
2023-02-11T22:14:13.443Z,101641.41
2023-02-11T22:16:42.642Z,101641.28
2023-02-11T22:19:12.846Z,101657.81
2023-02-11T22:21:43.691Z,101660.28
2023-02-11T22:24:12.644Z,101660.34
2023-02-11T22:26:41.901Z,101677.94
2023-02-11T22:29:12.679Z,101677.00
2023-02-11T22:31:41.480Z,101678.81
2023-02-11T22:34:10.739Z,101689.78
2023-02-11T22:36:42.697Z,101690.59
2023-02-11T22:39:14.397Z,101694.16
2023-02-11T22:41:43.598Z,101693.31
2023-02-11T22:44:12.705Z,101686.59
2023-02-11T22:46:42.812Z,101693.66
2023-02-11T22:49:13.975Z,101696.25
2023-02-11T22:51:44.537Z,101695.38
2023-02-11T22:54:15.557Z,101719.44
2023-02-11T22:56:45.141Z,101715.00
2023-02-11T22:59:15.680Z,101723.91
2023-02-11T23:01:45.414Z,101718.72
2023-02-11T23:04:15.972Z,101723.97
2023-02-11T23:06:49.257Z,101735.53
2023-02-11T23:09:18.576Z,101727.66
2023-02-11T23:11:48.923Z,101733.72
2023-02-11T23:14:17.605Z,101741.06
2023-02-11T23:16:46.078Z,101730.34
2023-02-11T23:19:14.767Z,101742.72
2023-02-11T23:21:43.291Z,101736.16
2023-02-11T23:24:15.212Z,101745.31
2023-02-11T23:26:45.020Z,101756.16
2023-02-11T23:29:13.968Z,101758.56
2023-02-11T23:31:46.227Z,101766.81
2023-02-11T23:34:17.385Z,101772.72
2023-02-11T23:36:45.664Z,101767.63
2023-02-11T23:39:17.508Z,101764.25
2023-02-11T23:41:46.312Z,101770.47
2023-02-11T23:44:14.910Z,101774.72
2023-02-11T23:46:43.535Z,101777.56
2023-02-11T23:49:12.036Z,101788.94
2023-02-11T23:51:40.608Z,101790.88
2023-02-11T23:54:09.068Z,101791.94
2023-02-11T23:56:39.282Z,101803.25
2023-02-11T23:59:07.747Z,101802.53
